Time;durP1;ratioP1;P1;durP2;ratioP2;P2;SDS_P1;SDS_P2;PMS_P1;PMS_P2;Temp;Humidity;BMP_temperature;BMP_pressure;BME280_temperature;BME280_humidity;BME280_pressure;Samples;Min_cycle;Max_cycle;Signal;HPM_P1;HPM_P2
2022/07/05 00:00:00;;;;;;;1.60;0.60;;;;;;;27.82;42.33;101298.53;5012177;28;20053;-49
2022/07/05 00:02:26;;;;;;;1.23;0.40;;;;;;;27.98;40.63;101309.16;5012156;28;20033;-50
2022/07/05 00:04:52;;;;;;;2.60;1.80;;;;;;;27.70;40.49;101302.94;5012104;28;20105;-50
2022/07/05 00:07:19;;;;;;;4.38;1.70;;;;;;;27.59;41.28;101297.66;4999936;28;20034;-50
2022/07/05 00:09:54;;;;;;;1.05;0.68;;;;;;;27.60;41.42;101295.72;5005594;28;20520;-50
2022/07/05 00:12:23;;;;;;;1.92;0.80;;;;;;;27.65;42.19;101301.09;5024568;28;20406;-46
2022/07/05 00:14:50;;;;;;;2.08;0.88;;;;;;;27.43;42.25;101304.63;5009381;28;20030;-49
2022/07/05 00:17:16;;;;;;;3.47;1.25;;;;;;;27.09;43.79;101305.06;5011081;28;20051;-50
2022/07/05 00:19:43;;;;;;;2.90;1.23;;;;;;;26.76;43.58;101301.56;5000639;28;20049;-48
2022/07/05 00:22:09;;;;;;;2.90;0.90;;;;;;;26.54;43.49;101300.31;5006244;28;20026;-47
2022/07/05 00:24:35;;;;;;;5.10;3.95;;;;;;;26.11;44.92;101296.09;5004688;28;20052;-49
2022/07/05 00:27:02;;;;;;;5.60;3.15;;;;;;;25.62;46.01;101289.94;5001668;28;20519;-49
2022/07/05 00:29:29;;;;;;;6.50;2.85;;;;;;;24.97;47.30;101284.19;5011176;28;20402;-46
2022/07/05 00:31:55;;;;;;;5.50;1.95;;;;;;;24.70;48.24;101285.56;5011516;28;20018;-49
2022/07/05 00:34:21;;;;;;;3.97;0.90;;;;;;;24.35;48.64;101284.00;5011403;28;20030;-49
2022/07/05 00:36:48;;;;;;;5.70;1.52;;;;;;;24.07;50.09;101291.06;5004524;28;20048;-46
2022/07/05 00:39:14;;;;;;;1.67;0.90;;;;;;;23.96;50.85;101284.84;4991853;28;20050;-48
2022/07/05 00:41:40;;;;;;;9.13;3.33;;;;;;;23.62;51.34;101279.34;4994004;28;20041;-49
2022/07/05 00:44:09;;;;;;;3.20;1.80;;;;;;;23.05;52.71;101277.97;5001248;28;20022;-49
2022/07/05 00:46:37;;;;;;;2.97;0.95;;;;;;;22.97;54.39;101277.72;5014479;28;20060;-49
2022/07/05 00:49:05;;;;;;;2.67;0.90;;;;;;;23.12;54.59;101275.75;5015188;28;20653;-48
2022/07/05 00:51:33;;;;;;;2.88;0.60;;;;;;;23.22;53.16;101258.50;5012478;28;20041;-49
2022/07/05 00:54:00;;;;;;;4.07;1.63;;;;;;;22.87;53.49;101273.91;5008585;28;20026;-47
2022/07/05 00:56:27;;;;;;;2.42;1.10;;;;;;;22.85;54.28;101278.81;4998156;28;20113;-50
2022/07/05 00:58:54;;;;;;;1.65;0.80;;;;;;;22.84;54.90;101279.09;5016085;28;20036;-50
2022/07/05 01:01:21;;;;;;;1.25;0.80;;;;;;;22.68;54.34;101281.03;5035536;28;20029;-49
2022/07/05 01:03:47;;;;;;;1.50;0.90;;;;;;;22.21;55.21;101270.44;5024811;28;20120;-45
2022/07/05 01:06:14;;;;;;;2.17;1.30;;;;;;;21.98;56.01;101269.03;5014877;28;20033;-50
2022/07/05 01:08:42;;;;;;;2.58;0.98;;;;;;;22.03;56.25;101261.69;5013656;28;20026;-47
2022/07/05 01:11:11;;;;;;;5.68;4.10;;;;;;;21.88;57.93;101264.44;4994021;28;20042;-51
2022/07/05 01:13:38;;;;;;;10.15;7.90;;;;;;;21.81;57.73;101264.66;4997266;28;20143;-48
2022/07/05 01:16:04;;;;;;;8.23;5.95;;;;;;;21.92;57.80;101259.22;5015005;28;20363;-51
2022/07/05 01:18:32;;;;;;;12.82;8.93;;;;;;;21.71;57.62;101261.94;5015165;28;20033;-48
2022/07/05 01:21:00;;;;;;;16.08;13.80;;;;;;;21.78;58.11;101264.41;5014890;28;20022;-50
2022/07/05 01:23:31;;;;;;;15.13;11.63;;;;;;;21.73;57.89;101272.56;5009341;28;20026;-49
2022/07/05 01:25:59;;;;;;;11.45;10.05;;;;;;;22.01;57.71;101265.78;4994851;28;20034;-50
2022/07/05 01:28:26;;;;;;;3.20;1.20;;;;;;;21.73;57.20;101261.69;4995111;28;20045;-51
2022/07/05 01:30:52;;;;;;;2.25;1.30;;;;;;;21.87;57.52;101260.03;5027915;28;20083;-50
2022/07/05 01:33:18;;;;;;;11.40;9.77;;;;;;;22.13;57.53;101263.63;5027976;28;20029;-47
2022/07/05 01:35:45;;;;;;;2.92;1.67;;;;;;;22.31;56.24;101263.06;4998271;28;20110;-51
2022/07/05 01:38:12;;;;;;;5.07;4.13;;;;;;;22.71;55.27;101283.22;5007218;28;20037;-50
2022/07/05 01:40:38;;;;;;;1.65;0.88;;;;;;;22.56;55.43;101281.34;4999711;28;20038;-49
2022/07/05 01:43:05;;;;;;;4.78;2.10;;;;;;;22.73;55.69;101269.28;4993846;28;20033;-49
2022/07/05 01:45:41;;;;;;;1.73;1.38;;;;;;;22.62;56.12;101279.41;4993489;28;20034;-50
2022/07/05 01:48:11;;;;;;;1.60;1.17;;;;;;;23.06;54.45;101274.13;4995063;28;20026;-47
2022/07/05 01:50:47;;;;;;;1.00;0.57;;;;;;;23.11;53.92;101282.31;4994368;28;20110;-49
2022/07/05 01:53:22;;;;;;;1.77;1.00;;;;;;;23.29;53.63;101277.31;4994316;28;20022;-50
2022/07/05 01:55:49;;;;;;;0.93;0.82;;;;;;;23.15;53.68;101282.53;5007750;28;20095;-47
2022/07/05 01:58:16;;;;;;;1.17;0.65;;;;;;;23.35;53.41;101282.47;5016072;28;20030;-48
2022/07/05 02:00:44;;;;;;;0.68;0.60;;;;;;;23.60;52.67;101280.72;5010166;28;20116;-48
2022/07/05 02:03:12;;;;;;;0.80;0.47;;;;;;;23.09;53.37;101283.66;5002660;28;20026;-49
2022/07/05 02:05:39;;;;;;;2.78;0.82;;;;;;;22.92;54.85;101295.72;4995543;28;20034;-48
2022/07/05 02:08:06;;;;;;;1.85;1.25;;;;;;;22.96;54.44;101287.00;5011697;28;20047;-50
2022/07/05 02:10:32;;;;;;;1.05;0.80;;;;;;;23.21;54.77;101286.91;5013689;28;20109;-49
2022/07/05 02:12:58;;;;;;;1.77;1.10;;;;;;;23.09;54.61;101283.66;5013915;28;20107;-48
2022/07/05 02:15:24;;;;;;;1.10;0.90;;;;;;;23.21;54.35;101288.81;5012879;28;20022;-50
2022/07/05 02:17:50;;;;;;;0.80;0.45;;;;;;;23.67;53.27;101290.25;5009067;28;20037;-50
2022/07/05 02:20:17;;;;;;;11.60;8.43;;;;;;;24.00;51.98;101292.50;5013789;28;20363;-50
2022/07/05 02:22:45;;;;;;;26.98;22.35;;;;;;;24.11;51.56;101286.66;5014058;28;20022;-49
2022/07/05 02:25:11;;;;;;;27.48;24.52;;;;;;;24.11;52.13;101296.78;5004255;28;20067;-50
2022/07/05 02:27:38;;;;;;;4.50;3.53;;;;;;;24.41;51.71;101296.53;5011718;28;20099;-48
2022/07/05 02:30:04;;;;;;;2.90;2.30;;;;;;;24.36;51.15;101299.31;5013478;28;20026;-51
2022/07/05 02:32:31;;;;;;;4.70;2.42;;;;;;;23.98;52.00;101301.78;5012714;28;20076;-51
2022/07/05 02:34:57;;;;;;;5.57;3.60;;;;;;;23.92;52.36;101302.09;5000007;28;20052;-46
2022/07/05 02:37:24;;;;;;;2.20;1.10;;;;;;;23.84;52.59;101308.19;5013657;28;20026;-51
2022/07/05 02:39:50;;;;;;;0.25;0.25;;;;;;;23.55;53.57;101308.06;5013451;28;20053;-51
2022/07/05 02:42:16;;;;;;;1.10;0.40;;;;;;;23.45;54.02;101309.72;5013445;28;20057;-51
2022/07/05 02:44:42;;;;;;;0.90;0.60;;;;;;;23.10;54.95;101312.63;5013319;28;20419;-47
2022/07/05 02:47:08;;;;;;;2.95;0.30;;;;;;;22.66;56.30;101315.97;5013062;28;20036;-50
2022/07/05 02:49:35;;;;;;;0.20;0.20;;;;;;;22.42;56.98;101317.63;5013615;28;20593;-48
2022/07/05 02:52:01;;;;;;;0.57;0.30;;;;;;;22.36;56.81;101309.44;5012826;28;20026;-51
2022/07/05 02:54:27;;;;;;;0.50;0.30;;;;;;;22.14;57.64;101301.53;4993122;28;20033;-50
2022/07/05 02:56:53;;;;;;;0.30;0.30;;;;;;;22.20;57.28;101298.81;4995117;28;20592;-49
2022/07/05 02:59:19;;;;;;;1.50;1.25;;;;;;;;;;5010812;28;20028;-51
2022/07/05 03:01:45;;;;;;;10.23;8.60;;;;;;;21.86;58.54;101304.75;5012893;28;20030;-50
2022/07/05 03:04:11;;;;;;;4.82;4.05;;;;;;;21.48;59.74;101297.84;5012451;28;20029;-49
2022/07/05 03:06:38;;;;;;;2.22;1.88;;;;;;;21.39;60.10;101294.00;5012495;28;20022;-50
2022/07/05 03:09:04;;;;;;;1.35;1.05;;;;;;;21.41;60.19;101294.53;5012972;28;20033;-51
2022/07/05 03:11:30;;;;;;;3.88;3.38;;;;;;;21.21;60.80;101298.81;5012686;28;20646;-50
2022/07/05 03:13:57;;;;;;;1.50;1.23;;;;;;;21.00;61.55;101294.34;5012644;28;20030;-48
2022/07/05 03:16:24;;;;;;;2.83;1.98;;;;;;;20.92;62.33;101305.72;5009506;28;20018;-48
2022/07/05 03:18:50;;;;;;;7.32;4.97;;;;;;;20.92;61.92;101301.09;4994502;28;20034;-50
2022/07/05 03:21:17;;;;;;;2.50;2.25;;;;;;;20.81;62.63;101297.50;5012736;28;20021;-47
2022/07/05 03:23:43;;;;;;;5.78;5.07;;;;;;;20.97;61.95;101292.16;5012544;28;20033;-50
2022/07/05 03:26:09;;;;;;;2.55;1.83;;;;;;;20.51;63.44;101300.03;5012617;28;20493;-48
2022/07/05 03:28:36;;;;;;;5.03;4.53;;;;;;;20.50;63.99;101301.94;5012746;28;20053;-51
2022/07/05 03:31:02;;;;;;;3.90;3.53;;;;;;;19.99;65.85;101306.09;5012558;28;20069;-49
2022/07/05 03:33:28;;;;;;;2.00;1.10;;;;;;;20.20;65.66;101304.38;5012639;28;20497;-50
2022/07/05 03:35:55;;;;;;;1.35;1.25;;;;;;;20.34;65.42;101305.59;5012314;28;20044;-51
2022/07/05 03:38:21;;;;;;;1.55;1.40;;;;;;;20.09;66.38;101313.50;5007023;28;20080;-48
2022/07/05 03:40:47;;;;;;;5.53;3.70;;;;;;;20.06;66.22;101314.03;4981457;28;20037;-47
2022/07/05 03:43:13;;;;;;;2.65;2.13;;;;;;;20.08;66.33;101318.13;4992645;28;20049;-50
2022/07/05 03:45:39;;;;;;;3.85;3.38;;;;;;;19.99;66.57;101315.06;5011294;28;20034;-50
2022/07/05 03:48:06;;;;;;;3.65;2.80;;;;;;;19.87;66.55;101316.28;5010598;28;20536;-49
2022/07/05 03:50:32;;;;;;;6.00;4.30;;;;;;;19.81;66.90;101317.31;5009994;28;20087;-47
2022/07/05 03:52:58;;;;;;;4.85;3.80;;;;;;;19.71;66.80;101301.72;5010845;28;20474;-47
2022/07/05 03:55:24;;;;;;;4.15;3.05;;;;;;;19.45;67.53;101309.56;5012114;28;20021;-51
2022/07/05 03:57:51;;;;;;;4.60;2.65;;;;;;;19.33;68.06;101308.88;5012315;28;20080;-51
2022/07/05 04:00:17;;;;;;;3.72;2.85;;;;;;;19.32;67.78;101304.53;5007779;28;20123;-50
2022/07/05 04:02:43;;;;;;;7.63;6.93;;;;;;;19.19;68.61;101300.28;4992601;28;20046;-50
2022/07/05 04:05:09;;;;;;;13.65;10.23;;;;;;;19.06;69.36;101303.38;4992113;28;20019;-51
2022/07/05 04:07:53;;;;;;;8.50;7.43;;;;;;;19.07;69.24;101302.31;4992413;28;20461;-51
2022/07/05 04:10:20;;;;;;;34.72;28.08;;;;;;;19.11;69.12;101308.06;5003472;28;20022;-47
2022/07/05 04:12:47;;;;;;;27.83;20.70;;;;;;;19.05;69.65;101303.63;5011930;28;20084;-50
2022/07/05 04:15:14;;;;;;;33.33;28.20;;;;;;;19.09;69.31;101302.03;5011932;28;20149;-51
2022/07/05 04:17:52;;;;;;;30.95;25.15;;;;;;;18.66;71.21;101301.72;5016166;28;20072;-47
2022/07/05 04:20:20;;;;;;;39.97;29.23;;;;;;;18.63;71.00;101307.63;5016030;28;20104;-51
2022/07/05 04:22:47;;;;;;;60.92;46.05;;;;;;;18.49;72.00;101311.75;5016333;28;20061;-49
2022/07/05 04:25:16;;;;;;;69.53;55.20;;;;;;;18.36;72.60;101312.06;4998350;28;20489;-50
2022/07/05 04:27:47;;;;;;;67.68;52.85;;;;;;;18.37;72.67;101313.69;5015670;28;20099;-50
2022/07/05 04:30:15;;;;;;;45.10;32.70;;;;;;;18.41;72.40;101306.72;5016242;28;20028;-50
2022/07/05 04:32:42;;;;;;;40.97;31.95;;;;;;;18.17;73.48;101303.38;5015802;28;20127;-50
2022/07/05 04:35:09;;;;;;;33.38;24.15;;;;;;;18.29;73.17;101298.69;5015415;28;20097;-50
2022/07/05 04:37:35;;;;;;;25.40;20.42;;;;;;;18.19;74.20;101307.44;5015761;28;20124;-49
2022/07/05 04:40:06;;;;;;;30.92;24.35;;;;;;;18.13;74.11;101303.03;5016211;28;20037;-50
2022/07/05 04:42:32;;;;;;;30.45;24.48;;;;;;;18.09;74.60;101315.41;5015819;28;20022;-49
2022/07/05 04:44:59;;;;;;;16.08;13.07;;;;;;;18.09;74.43;101318.09;5015249;28;20025;-47
2022/07/05 04:47:25;;;;;;;22.00;17.52;;;;;;;18.00;75.28;101322.31;5015308;28;20036;-51
2022/07/05 04:49:53;;;;;;;25.45;18.55;;;;;;;18.09;74.69;101323.53;5013717;28;20034;-50
2022/07/05 04:52:19;;;;;;;29.90;22.67;;;;;;;18.16;74.18;101324.22;5015659;28;20034;-49
2022/07/05 04:54:46;;;;;;;26.58;22.20;;;;;;;18.18;74.29;101316.66;5014988;28;20030;-50
2022/07/05 04:57:12;;;;;;;22.63;16.60;;;;;;;18.11;75.06;101324.13;5013463;28;20064;-51
2022/07/05 04:59:38;;;;;;;26.65;20.20;;;;;;;18.13;74.88;101321.16;5015525;28;20109;-47
2022/07/05 05:02:05;;;;;;;39.30;31.33;;;;;;;18.26;74.97;101322.72;5014489;28;20032;-50
2022/07/05 05:04:31;;;;;;;26.73;21.55;;;;;;;18.14;75.22;101317.38;5015098;28;20743;-47
2022/07/05 05:06:58;;;;;;;19.65;16.38;;;;;;;18.13;75.59;101323.88;5014415;28;20065;-50
2022/07/05 05:09:24;;;;;;;17.08;15.18;;;;;;;18.14;75.64;101326.31;5015041;28;20026;-50
2022/07/05 05:11:51;;;;;;;18.42;14.15;;;;;;;18.10;75.45;101321.63;5014097;28;20053;-46
2022/07/05 05:14:17;;;;;;;14.82;13.13;;;;;;;18.17;75.08;101330.44;5014839;28;20028;-51
2022/07/05 05:16:43;;;;;;;14.85;12.30;;;;;;;18.33;74.63;101331.53;5014450;28;20084;-49
2022/07/05 05:19:10;;;;;;;11.32;9.48;;;;;;;18.26;74.69;101328.97;5015118;28;20036;-49
2022/07/05 05:21:36;;;;;;;17.17;13.90;;;;;;;18.10;75.43;101329.75;5014303;28;20026;-51
2022/07/05 05:24:02;;;;;;;18.90;15.80;;;;;;;18.12;75.28;101333.88;5014914;28;20113;-49
2022/07/05 05:26:28;;;;;;;26.00;21.27;;;;;;;18.14;75.69;101337.16;5013268;28;20034;-50
2022/07/05 05:28:55;;;;;;;16.38;13.52;;;;;;;18.12;75.72;101341.19;5013730;28;20462;-48
2022/07/05 05:31:21;;;;;;;11.10;8.57;;;;;;;18.04;75.90;101342.41;5011676;28;20025;-48
2022/07/05 05:33:48;;;;;;;7.05;5.90;;;;;;;17.88;76.54;101343.22;4993217;28;20026;-50
2022/07/05 05:36:14;;;;;;;11.65;9.85;;;;;;;17.95;76.74;101343.88;4997101;28;20047;-46
2022/07/05 05:38:40;;;;;;;11.63;9.10;;;;;;;17.89;76.80;101339.44;4995436;28;20030;-46
2022/07/05 05:41:06;;;;;;;11.27;8.90;;;;;;;17.83;77.36;101346.63;4994509;28;20037;-50
2022/07/05 05:43:33;;;;;;;6.30;5.60;;;;;;;17.86;77.11;101342.59;4977315;28;20030;-49
2022/07/05 05:45:59;;;;;;;9.55;7.70;;;;;;;17.85;77.39;101338.25;4978653;28;20034;-48
2022/07/05 05:48:26;;;;;;;5.70;4.80;;;;;;;17.73;77.13;101334.78;4993906;28;20030;-49
2022/07/05 05:50:52;;;;;;;5.40;3.80;;;;;;;17.85;77.11;101340.97;4997056;28;20030;-50
2022/07/05 05:53:18;;;;;;;5.93;5.03;;;;;;;18.03;76.23;101335.34;5012261;28;20164;-46
2022/07/05 05:55:45;;;;;;;4.53;3.72;;;;;;;17.94;75.88;101331.41;4997916;28;20033;-46
2022/07/05 05:58:17;;;;;;;4.55;4.03;;;;;;;17.96;76.03;101329.25;4997939;28;20214;-50
2022/07/05 06:00:47;;;;;;;8.88;7.22;;;;;;;17.99;75.97;101333.34;5014156;28;20071;-48
2022/07/05 06:03:15;;;;;;;15.55;11.43;;;;;;;17.88;76.59;101327.78;5002404;28;20425;-47
2022/07/05 06:05:42;;;;;;;16.00;12.38;;;;;;;17.88;76.70;101327.78;4997624;28;20390;-49
2022/07/05 06:08:08;;;;;;;13.02;11.10;;;;;;;17.89;76.42;101334.00;4993513;28;20113;-46
2022/07/05 06:10:35;;;;;;;11.27;9.13;;;;;;;17.83;76.61;101324.97;4998062;28;20030;-49
2022/07/05 06:13:05;;;;;;;9.45;7.20;;;;;;;17.97;76.28;101317.34;5014069;28;20045;-48
2022/07/05 06:15:32;;;;;;;8.07;7.25;;;;;;;18.14;75.33;101323.63;5012273;28;20386;-47
2022/07/05 06:17:58;;;;;;;14.25;11.38;;;;;;;18.11;75.91;101324.13;5014007;28;20026;-49
2022/07/05 06:20:28;;;;;;;27.52;19.92;;;;;;;18.25;75.21;101321.09;5011982;28;20580;-50
2022/07/05 06:22:55;;;;;;;26.00;19.95;;;;;;;18.12;75.95;101323.06;5003681;28;20106;-49
2022/07/05 06:25:22;;;;;;;19.40;15.15;;;;;;;18.13;75.73;101323.88;4994275;28;20033;-48
2022/07/05 06:27:51;;;;;;;18.17;13.30;;;;;;;18.21;75.00;101320.75;4993968;28;20031;-47
2022/07/05 06:30:19;;;;;;;10.23;8.77;;;;;;;18.16;75.34;101318.78;5013145;28;20022;-49
2022/07/05 06:32:47;;;;;;;10.07;8.98;;;;;;;18.18;75.31;101313.94;5013662;28;20030;-50
2022/07/05 06:35:14;;;;;;;14.48;9.90;;;;;;;18.28;75.13;101309.78;5011489;28;20026;-50
2022/07/05 06:37:53;;;;;;;10.93;9.82;;;;;;;18.27;75.32;101311.66;5013674;28;20144;-48
2022/07/05 06:40:21;;;;;;;7.50;5.90;;;;;;;18.38;74.47;101315.38;5010685;28;20486;-48
2022/07/05 06:42:48;;;;;;;3.78;3.42;;;;;;;18.35;74.85;101302.28;5013559;28;20030;-48
2022/07/05 06:45:14;;;;;;;5.18;4.68;;;;;;;18.33;75.32;101307.16;5003284;28;20029;-50
2022/07/05 06:47:41;;;;;;;5.88;4.93;;;;;;;18.40;74.89;101300.50;5013061;28;20054;-49
2022/07/05 06:50:07;;;;;;;4.15;3.75;;;;;;;18.26;75.65;101306.47;5011211;28;20069;-49
2022/07/05 06:52:34;;;;;;;5.38;3.60;;;;;;;18.11;76.19;101298.94;5013626;28;20176;-50
2022/07/05 06:55:01;;;;;;;3.60;2.58;;;;;;;18.34;75.37;101303.38;5011060;28;20033;-50
2022/07/05 06:57:28;;;;;;;2.17;1.98;;;;;;;18.30;75.16;101296.78;5013373;28;20021;-49
2022/07/05 06:59:54;;;;;;;2.33;1.80;;;;;;;18.40;74.95;101297.78;5011616;28;20029;-50
2022/07/05 07:02:20;;;;;;;3.75;3.30;;;;;;;18.55;74.44;101285.53;5010107;28;20030;-47
2022/07/05 07:04:48;;;;;;;4.68;4.25;;;;;;;18.53;74.53;101296.63;5009226;28;20077;-48
2022/07/05 07:10:00;;;;;;;7.15;4.93;;;;;;;18.37;75.94;101297.44;5033304;28;20040;-50
2022/07/05 07:12:27;;;;;;;5.30;4.25;;;;;;;18.43;75.41;101296.44;5018515;28;20038;-50
2022/07/05 07:14:53;;;;;;;4.10;3.03;;;;;;;18.31;75.83;101291.13;5012586;28;20065;-50
2022/07/05 07:17:20;;;;;;;3.10;2.80;;;;;;;18.37;75.38;101292.00;5003221;28;20033;-48
2022/07/05 07:19:46;;;;;;;3.28;2.00;;;;;;;18.36;76.03;101293.91;5013032;28;20076;-50
2022/07/05 07:22:12;;;;;;;2.20;2.00;;;;;;;18.46;75.32;101294.06;5012954;28;20049;-49
2022/07/05 07:24:38;;;;;;;2.22;1.92;;;;;;;18.35;75.80;101299.59;4998628;28;20026;-49
2022/07/05 07:27:06;;;;;;;2.10;1.77;;;;;;;18.36;76.01;101291.19;5028419;28;20030;-46
2022/07/05 07:29:35;;;;;;;2.13;1.70;;;;;;;18.50;75.85;101290.88;5027252;28;20222;-50
2022/07/05 07:32:03;;;;;;;1.65;1.45;;;;;;;18.54;75.15;101290.13;5012923;28;20289;-49
2022/07/05 07:34:30;;;;;;;2.00;1.58;;;;;;;18.66;74.97;101280.03;5012311;28;20026;-50
2022/07/05 07:36:56;;;;;;;2.55;1.63;;;;;;;18.71;74.83;101285.56;5012538;28;20398;-50
2022/07/05 07:39:24;;;;;;;2.10;1.90;;;;;;;18.72;74.55;101286.38;5012590;28;20065;-49
2022/07/05 07:41:51;;;;;;;2.70;2.03;;;;;;;18.75;74.18;101285.03;5018388;28;20401;-50
2022/07/05 07:44:17;;;;;;;1.23;1.13;;;;;;;18.77;74.31;101280.16;5031955;28;20434;-50
2022/07/05 07:46:43;;;;;;;1.20;0.88;;;;;;;18.77;74.26;101280.16;5032073;28;20434;-49
2022/07/05 07:49:13;;;;;;;0.50;0.50;;;;;;;18.81;74.07;101275.91;5032515;28;20029;-46
2022/07/05 07:51:40;;;;;;;0.50;0.43;;;;;;;18.62;74.50;101273.44;5022935;28;20044;-50
2022/07/05 07:54:07;;;;;;;0.70;0.60;;;;;;;18.81;74.13;101271.28;5012566;28;20026;-47
2022/07/05 07:56:33;;;;;;;1.17;0.40;;;;;;;18.78;73.92;101265.56;5011250;28;20034;-50
2022/07/05 07:59:00;;;;;;;0.43;0.28;;;;;;;18.72;74.10;101257.34;5010959;28;20017;-47
2022/07/05 08:01:26;;;;;;;0.43;0.30;;;;;;;18.62;74.82;101270.72;4994489;28;20033;-49
2022/07/05 08:03:53;;;;;;;0.50;0.50;;;;;;;18.56;74.35;101266.31;4991940;28;20061;-49
2022/07/05 08:06:19;;;;;;;1.55;1.10;;;;;;;18.81;73.60;101262.34;4991330;28;20125;-49
2022/07/05 08:08:47;;;;;;;1.63;1.20;;;;;;;18.71;74.30;101261.16;4991986;28;20058;-50
2022/07/05 08:11:14;;;;;;;1.20;1.08;;;;;;;18.76;74.17;101254.94;4989866;28;20054;-49
2022/07/05 08:13:42;;;;;;;1.80;0.90;;;;;;;18.75;74.08;101260.63;4992449;28;20113;-48
2022/07/05 08:16:09;;;;;;;1.05;0.85;;;;;;;18.84;73.91;101251.00;4992193;28;20023;-48
2022/07/05 08:21:38;;;;;;;1.98;1.23;;;;;;;18.81;73.97;101257.72;5012414;28;20092;-46
2022/07/05 08:24:09;;;;;;;1.20;1.10;;;;;;;18.71;75.01;101253.00;4998286;28;20023;-49
2022/07/05 08:26:37;;;;;;;1.02;0.82;;;;;;;18.64;74.56;101255.03;4991785;28;20066;-47
2022/07/05 08:29:05;;;;;;;1.20;1.10;;;;;;;18.68;74.34;101256.22;4993523;28;20418;-49
2022/07/05 08:31:34;;;;;;;1.27;1.17;;;;;;;18.68;74.61;101250.78;4991697;28;20479;-50
2022/07/05 08:34:01;;;;;;;1.35;1.25;;;;;;;18.75;74.65;101255.22;4991008;28;20026;-48
2022/07/05 08:36:27;;;;;;;1.42;1.23;;;;;;;18.78;74.38;101257.44;4991663;28;20305;-50
2022/07/05 08:38:53;;;;;;;1.23;1.10;;;;;;;18.86;74.19;101254.28;4992894;28;20490;-46
2022/07/05 08:41:21;;;;;;;1.30;0.82;;;;;;;18.87;74.10;101250.47;4991207;28;20471;-47
2022/07/05 08:43:49;;;;;;;1.08;0.98;;;;;;;18.67;74.87;101259.16;4991111;28;20026;-48
2022/07/05 08:46:16;;;;;;;0.90;0.57;;;;;;;18.87;74.47;101254.00;4991389;28;20026;-47
2022/07/05 08:48:44;;;;;;;1.20;0.90;;;;;;;18.72;74.46;101257.34;4990006;28;20478;-49
2022/07/05 08:51:22;;;;;;;1.00;0.90;;;;;;;18.85;73.98;101263.47;4991154;28;20026;-50
2022/07/05 08:53:49;;;;;;;1.00;0.70;;;;;;;18.76;74.26;101259.56;4990824;28;20041;-48
2022/07/05 08:56:17;;;;;;;0.80;0.60;;;;;;;18.87;74.03;101248.59;4990867;28;20490;-48
2022/07/05 08:58:43;;;;;;;0.90;0.75;;;;;;;18.96;73.92;101252.50;4989971;28;20030;-49
2022/07/05 09:01:10;;;;;;;0.90;0.82;;;;;;;18.88;73.67;101252.97;4989003;28;20026;-50
2022/07/05 09:03:51;;;;;;;1.08;0.82;;;;;;;19.07;73.74;101248.03;4993867;28;20073;-50
2022/07/05 09:06:20;;;;;;;1.42;1.17;;;;;;;18.91;74.21;101247.03;4995065;28;20030;-49
2022/07/05 09:08:48;;;;;;;1.30;1.02;;;;;;;19.08;73.56;101244.25;4993848;28;20050;-48
2022/07/05 09:11:16;;;;;;;2.08;1.17;;;;;;;19.04;73.83;101247.72;4994665;28;20046;-47
2022/07/05 09:13:50;;;;;;;1.90;1.50;;;;;;;19.10;73.91;101247.56;4999301;28;20508;-48
2022/07/05 09:16:17;;;;;;;1.95;1.52;;;;;;;19.03;74.10;101249.59;5004264;28;20045;-48
2022/07/05 09:18:46;;;;;;;1.90;1.55;;;;;;;18.95;74.35;101242.75;4993662;28;20453;-49
2022/07/05 09:21:13;;;;;;;2.55;1.95;;;;;;;18.94;74.92;101238.41;4994674;28;20026;-48
2022/07/05 09:23:41;;;;;;;2.10;1.45;;;;;;;18.97;74.31;101231.63;5001664;28;20058;-49
2022/07/05 09:26:07;;;;;;;2.22;1.50;;;;;;;19.12;73.97;101234.53;4999011;28;20070;-46
2022/07/05 09:28:33;;;;;;;1.70;1.30;;;;;;;18.98;74.39;101234.09;5001364;28;20030;-49
2022/07/05 09:30:59;;;;;;;2.10;1.70;;;;;;;19.14;73.80;101245.13;5013069;28;20022;-50
2022/07/05 09:33:26;;;;;;;2.00;1.80;;;;;;;19.26;73.74;101233.06;5013505;28;20115;-46
2022/07/05 09:35:59;;;;;;;2.83;1.50;;;;;;;19.13;73.77;101238.88;5014234;28;20026;-49
2022/07/05 09:38:26;;;;;;;1.30;1.17;;;;;;;19.05;73.96;101239.34;4997881;28;20482;-48
2022/07/05 09:40:55;;;;;;;1.23;0.95;;;;;;;19.01;74.33;101240.91;5013420;28;20225;-49
2022/07/05 09:43:23;;;;;;;1.13;1.00;;;;;;;19.02;73.92;101247.16;5014121;28;20018;-49
2022/07/05 09:46:03;;;;;;;0.75;0.60;;;;;;;19.05;73.77;101244.78;4993900;28;20034;-50
2022/07/05 09:48:32;;;;;;;1.48;0.70;;;;;;;18.84;74.40;101242.88;4994352;28;20161;-50
2022/07/05 09:51:10;;;;;;;0.60;0.60;;;;;;;18.95;74.61;101250.06;4993732;28;20038;-49
2022/07/05 09:53:58;;;;;;;0.77;0.60;;;;;;;18.92;74.48;101242.41;5004627;28;20613;-49
2022/07/05 09:56:29;;;;;;;0.75;0.60;;;;;;;18.91;74.26;101244.31;4994519;28;20467;-46
2022/07/05 09:58:55;;;;;;;1.10;0.65;;;;;;;18.82;74.87;101237.69;5007220;28;20053;-47
2022/07/05 10:01:30;;;;;;;0.40;0.40;;;;;;;18.92;74.61;101235.09;5014046;28;20018;-50
2022/07/05 10:04:01;;;;;;;0.35;0.30;;;;;;;18.78;75.17;101231.13;5012503;28;20026;-49
2022/07/05 10:06:29;;;;;;;1.63;0.45;;;;;;;18.88;74.50;101238.59;5009357;28;20109;-46
2022/07/05 10:08:55;;;;;;;0.43;0.30;;;;;;;18.98;73.83;101241.41;4994990;28;20034;-50
2022/07/05 10:11:26;;;;;;;0.28;0.20;;;;;;;18.82;74.62;101245.00;4993628;28;20133;-50
2022/07/05 10:13:54;;;;;;;0.20;0.20;;;;;;;18.98;74.52;101244.13;4991430;28;20030;-47
2022/07/05 10:16:23;;;;;;;0.13;0.13;;;;;;;19.09;73.97;101239.63;4993752;28;20034;-49
2022/07/05 10:18:55;;;;;;;0.50;0.38;;;;;;;19.17;73.62;101233.78;4998698;28;20026;-48
2022/07/05 10:21:23;;;;;;;0.20;0.20;;;;;;;19.24;72.73;101234.41;4997428;28;20475;-46
2022/07/05 10:23:55;;;;;;;0.20;0.20;;;;;;;19.11;73.57;101227.47;5005399;28;20030;-46
2022/07/05 10:26:23;;;;;;;0.43;0.32;;;;;;;19.07;74.22;101231.75;4994241;28;20057;-47
2022/07/05 10:28:52;;;;;;;0.40;0.28;;;;;;;19.08;74.01;101244.25;4994405;28;20034;-49
2022/07/05 10:31:18;;;;;;;0.85;0.30;;;;;;;19.06;73.89;101242.88;5013556;28;20034;-49
2022/07/05 10:33:45;;;;;;;0.20;0.20;;;;;;;19.15;73.65;101244.06;5011911;28;20441;-48
2022/07/05 10:36:13;;;;;;;0.60;0.40;;;;;;;19.19;73.23;101240.59;5008055;28;20042;-50
2022/07/05 10:38:42;;;;;;;0.30;0.30;;;;;;;19.15;73.39;101238.63;5006408;28;20022;-47
2022/07/05 10:41:14;;;;;;;0.22;0.20;;;;;;;19.14;74.10;101243.22;5013267;28;20021;-47
2022/07/05 10:43:40;;;;;;;0.20;0.20;;;;;;;19.03;74.10;101238.75;4999455;28;20541;-49
2022/07/05 10:46:09;;;;;;;0.30;0.20;;;;;;;19.01;74.40;101238.19;4993239;28;20057;-49
2022/07/05 10:48:36;;;;;;;0.20;0.20;;;;;;;18.96;74.55;101246.28;4993988;28;20121;-49
2022/07/05 10:51:15;;;;;;;0.20;0.20;;;;;;;19.06;73.96;101242.88;4993163;28;20022;-49
2022/07/05 10:53:41;;;;;;;0.20;0.20;;;;;;;18.94;74.44;101248.44;4991613;28;20038;-45
2022/07/05 10:56:07;;;;;;;0.40;0.10;;;;;;;18.86;74.05;101240.72;4993296;28;20038;-50
2022/07/05 10:58:38;;;;;;;0.10;0.10;;;;;;;18.78;74.09;101243.88;4993624;28;20022;-47
2022/07/05 11:01:13;;;;;;;0.00;0.00;;;;;;;18.85;74.54;101242.59;4990911;28;20383;-47
2022/07/05 11:03:41;;;;;;;0.00;0.00;;;;;;;18.96;73.15;101243.56;4998022;28;20390;-46
2022/07/05 11:06:08;;;;;;;0.00;0.00;;;;;;;18.99;73.79;101240.34;4993197;28;20042;-50
2022/07/05 11:09:00;;;;;;;0.15;0.00;;;;;;;19.09;73.30;101240.47;4992703;28;20030;-47
2022/07/05 11:11:26;;;;;;;0.08;0.00;;;;;;;18.90;73.86;101234.53;4984176;28;20077;-47
2022/07/05 11:13:54;;;;;;;0.95;0.00;;;;;;;18.79;74.24;101240.91;4992410;28;20037;-49
2022/07/05 11:16:23;;;;;;;0.10;0.10;;;;;;;18.76;74.53;101240.56;4992089;28;20045;-49
2022/07/05 11:19:05;;;;;;;0.13;0.00;;;;;;;18.73;74.31;101240.00;4992293;28;20038;-47
2022/07/05 11:21:32;;;;;;;1.75;0.00;;;;;;;18.59;75.09;101235.97;4992545;28;20031;-47
2022/07/05 11:24:24;;;;;;;0.05;0.00;;;;;;;18.75;73.96;101244.34;5002340;28;20026;-50
2022/07/05 11:26:52;;;;;;;0.10;0.00;;;;;;;18.64;74.46;101240.66;4993146;28;20027;-50
2022/07/05 11:29:44;;;;;;;0.00;0.00;;;;;;;18.80;73.97;101239.81;4992596;28;20065;-49